Time;durP1;ratioP1;P1;durP2;ratioP2;P2;SDS_P1;SDS_P2;PMS_P1;PMS_P2;Temp;Humidity;BMP_temperature;BMP_pressure;BME280_temperature;BME280_humidity;BME280_pressure;Samples;Min_cycle;Max_cycle;Signal;HPM_P1;HPM_P2
2022/03/06 00:02:26;;;;;;;0.70;0.70;;;;;;;;;;5074343;28;20227;-72
2022/03/06 00:04:52;;;;;;;0.85;0.85;;;;;;;;;;5070868;28;20205;-73
2022/03/06 00:07:19;;;;;;;0.70;0.60;;;;;;;;;;5081164;28;20248;-72
2022/03/06 00:09:46;;;;;;;1.20;1.10;;;;;;;;;;5095367;28;20259;-72
2022/03/06 00:12:13;;;;;;;0.90;0.90;;;;;;;;;;5066056;28;20271;-72
2022/03/06 00:14:40;;;;;;;0.70;0.63;;;;;;;;;;5044267;28;20214;-72
2022/03/06 00:17:07;;;;;;;0.70;0.60;;;;;;;;;;5054036;28;20185;-72
2022/03/06 00:19:35;;;;;;;0.70;0.70;;;;;;;;;;5054074;28;20232;-72
2022/03/06 00:22:02;;;;;;;0.80;0.80;;;;;;;;;;5055500;28;20205;-74
2022/03/06 00:24:30;;;;;;;0.70;0.60;;;;;;;;;;5064307;28;20257;-72
2022/03/06 00:26:56;;;;;;;0.70;0.68;;;;;;;;;;5073726;28;20173;-72
2022/03/06 00:29:23;;;;;;;0.70;0.60;;;;;;;;;;5072265;28;20247;-72
2022/03/06 00:31:50;;;;;;;0.70;0.60;;;;;;;;;;5075464;28;20641;-72
2022/03/06 00:34:17;;;;;;;0.73;0.70;;;;;;;;;;5052684;28;20221;-72
2022/03/06 00:36:45;;;;;;;0.70;0.60;;;;;;;;;;5069988;28;20259;-72
2022/03/06 00:39:17;;;;;;;0.80;0.80;;;;;;;;;;5069568;28;20587;-73
2022/03/06 00:41:43;;;;;;;0.80;0.80;;;;;;;;;;5064129;28;20209;-72
2022/03/06 00:44:10;;;;;;;0.70;0.70;;;;;;;;;;5073316;28;20664;-72
2022/03/06 00:46:38;;;;;;;0.70;0.60;;;;;;;;;;5069707;28;20170;-72
2022/03/06 00:49:05;;;;;;;0.70;0.70;;;;;;;;;;5054827;28;20201;-72
2022/03/06 00:51:31;;;;;;;0.70;0.60;;;;;;;;;;5055020;28;20263;-72
2022/03/06 00:53:59;;;;;;;0.70;0.60;;;;;;;;;;5053080;28;20186;-72
2022/03/06 00:56:26;;;;;;;0.70;0.60;;;;;;;;;;5054357;28;20203;-71
2022/03/06 00:58:53;;;;;;;0.70;0.60;;;;;;;;;;5054290;28;20575;-72
2022/03/06 01:01:21;;;;;;;0.70;0.63;;;;;;;;;;5054665;28;20206;-72
2022/03/06 01:03:50;;;;;;;0.70;0.60;;;;;;;;;;5063960;28;20330;-72
2022/03/06 01:06:17;;;;;;;0.70;0.60;;;;;;;;;;5052358;28;20724;-72
2022/03/06 01:08:44;;;;;;;0.70;0.60;;;;;;;;;;5064464;28;20201;-72
2022/03/06 01:11:13;;;;;;;0.90;0.90;;;;;;;;;;5069814;28;20262;-72
2022/03/06 01:13:40;;;;;;;0.80;0.80;;;;;;;;;;5074476;28;20212;-72
2022/03/06 01:16:06;;;;;;;0.80;0.70;;;;;;;;;;5092809;28;20196;-72
2022/03/06 01:18:33;;;;;;;0.95;0.95;;;;;;;;;;5092923;28;20226;-72
2022/03/06 01:21:00;;;;;;;0.70;0.60;;;;;;;;;;5071597;28;20244;-72
2022/03/06 01:23:28;;;;;;;0.80;0.70;;;;;;;;;;5056407;28;20250;-71
2022/03/06 01:25:56;;;;;;;0.75;0.70;;;;;;;;;;5073832;28;20181;-72
2022/03/06 01:28:24;;;;;;;0.70;0.60;;;;;;;;;;5073458;28;20185;-73
2022/03/06 01:30:50;;;;;;;0.70;0.70;;;;;;;;;;5068924;28;20555;-71
2022/03/06 01:33:17;;;;;;;1.30;1.20;;;;;;;;;;5074160;28;20649;-72
2022/03/06 01:35:44;;;;;;;0.70;0.60;;;;;;;;;;5073624;28;20185;-72
2022/03/06 01:38:12;;;;;;;0.75;0.75;;;;;;;;;;5073784;28;20200;-72
2022/03/06 01:40:38;;;;;;;0.80;0.80;;;;;;;;;;5070439;28;20685;-72
2022/03/06 01:43:05;;;;;;;0.70;0.68;;;;;;;;;;5071993;28;20272;-71
2022/03/06 01:45:33;;;;;;;0.70;0.50;;;;;;;;;;5072283;28;20217;-72
2022/03/06 01:48:03;;;;;;;0.70;0.70;;;;;;;;;;5073929;28;20689;-71
2022/03/06 01:50:32;;;;;;;0.70;0.70;;;;;;;;;;5069103;28;20208;-72
2022/03/06 01:53:00;;;;;;;0.90;0.90;;;;;;;;;;5052854;28;20221;-71
2022/03/06 01:55:27;;;;;;;0.70;0.60;;;;;;;;;;5055078;28;20221;-72
2022/03/06 01:57:55;;;;;;;0.80;0.80;;;;;;;;;;5056538;28;20275;-71
2022/03/06 02:00:23;;;;;;;0.70;0.70;;;;;;;;;;5072715;28;20180;-72
2022/03/06 02:02:51;;;;;;;0.70;0.60;;;;;;;;;;5070360;28;20195;-71
2022/03/06 02:05:19;;;;;;;0.70;0.63;;;;;;;;;;5055953;28;20688;-72
2022/03/06 02:07:47;;;;;;;0.70;0.70;;;;;;;;;;5072049;28;20209;-72
2022/03/06 02:10:14;;;;;;;0.70;0.60;;;;;;;;;;5072155;28;20645;-72
2022/03/06 02:12:49;;;;;;;0.70;0.60;;;;;;;;;;5060902;28;20193;-72
2022/03/06 02:15:19;;;;;;;0.70;0.70;;;;;;;;;;5071826;28;20195;-71
2022/03/06 02:17:49;;;;;;;0.70;0.55;;;;;;;;;;5072203;28;20589;-71
2022/03/06 02:20:20;;;;;;;0.80;0.77;;;;;;;;;;5074802;28;20193;-71
2022/03/06 02:22:50;;;;;;;0.70;0.60;;;;;;;;;;5076131;28;20212;-71
2022/03/06 02:25:18;;;;;;;0.80;0.70;;;;;;;;;;5072126;28;20229;-70
2022/03/06 02:27:46;;;;;;;0.70;0.65;;;;;;;;;;5057951;28;20201;-71
2022/03/06 02:30:14;;;;;;;0.70;0.60;;;;;;;;;;5072267;28;20664;-71
2022/03/06 02:32:44;;;;;;;0.80;0.70;;;;;;;;;;5066801;28;20276;-72
2022/03/06 02:35:11;;;;;;;0.73;0.70;;;;;;;;;;5071863;28;20209;-72
2022/03/06 02:37:38;;;;;;;0.70;0.70;;;;;;;;;;5057494;28;20209;-72
2022/03/06 02:40:07;;;;;;;0.70;0.70;;;;;;;;;;5055370;28;20207;-71
2022/03/06 02:42:36;;;;;;;0.70;0.60;;;;;;;;;;5075402;28;20193;-72
2022/03/06 02:45:05;;;;;;;0.70;0.60;;;;;;;;;;5077479;28;20220;-73
2022/03/06 02:47:32;;;;;;;0.80;0.80;;;;;;;;;;5076004;28;20653;-72
2022/03/06 02:50:02;;;;;;;0.70;0.70;;;;;;;;;;5075862;28;20204;-71
2022/03/06 02:52:33;;;;;;;0.90;0.90;;;;;;;;;;5059838;28;20232;-71
2022/03/06 02:55:06;;;;;;;0.70;0.60;;;;;;;;;;5059741;28;20177;-71
2022/03/06 02:57:39;;;;;;;0.70;0.60;;;;;;;;;;5057214;28;20197;-71
2022/03/06 03:00:08;;;;;;;0.70;0.60;;;;;;;;;;5092743;28;20263;-72
2022/03/06 03:06:08;;;;;;;0.70;0.50;;;;;;;;;;5075278;28;20273;-72
2022/03/06 03:08:36;;;;;;;0.75;0.73;;;;;;;;;;5076865;28;20200;-72
2022/03/06 03:11:08;;;;;;;0.70;0.60;;;;;;;;;;5076663;28;20231;-72
2022/03/06 03:13:39;;;;;;;0.80;0.77;;;;;;;;;;5071637;28;20217;-72
2022/03/06 03:16:08;;;;;;;0.70;0.60;;;;;;;;;;5055738;28;20253;-71
2022/03/06 03:18:39;;;;;;;0.70;0.60;;;;;;;;;;5071602;28;20584;-70
2022/03/06 03:21:08;;;;;;;0.70;0.52;;;;;;;;;;5075550;28;20205;-70
2022/03/06 03:23:37;;;;;;;0.70;0.60;;;;;;;;;;5076315;28;20177;-70
2022/03/06 03:26:09;;;;;;;0.70;0.68;;;;;;;;;;5076123;28;20673;-70
2022/03/06 03:28:47;;;;;;;0.70;0.60;;;;;;;;;;5067587;28;20185;-71
2022/03/06 03:31:17;;;;;;;0.70;0.60;;;;;;;;;;5056348;28;20193;-71
2022/03/06 03:33:47;;;;;;;0.73;0.70;;;;;;;;;;5074923;28;20258;-70
2022/03/06 03:36:15;;;;;;;0.70;0.60;;;;;;;;;;5058190;28;20221;-71
2022/03/06 03:38:43;;;;;;;0.70;0.70;;;;;;;;;;5076432;28;20565;-71
2022/03/06 03:41:11;;;;;;;0.70;0.60;;;;;;;;;;5073562;28;20193;-70
2022/03/06 03:43:38;;;;;;;0.65;0.57;;;;;;;;;;5073686;28;20196;-71
2022/03/06 03:46:06;;;;;;;0.80;0.80;;;;;;;;;;5074201;28;20213;-70
2022/03/06 03:48:33;;;;;;;0.70;0.50;;;;;;;;;;5075251;28;20193;-71
2022/03/06 03:51:00;;;;;;;0.70;0.60;;;;;;;;;;5075459;28;20764;-71
2022/03/06 03:53:27;;;;;;;0.70;0.60;;;;;;;;;;5074800;28;20246;-71
2022/03/06 03:55:54;;;;;;;0.70;0.60;;;;;;;;;;5074593;28;20182;-70
2022/03/06 03:58:20;;;;;;;0.70;0.70;;;;;;;;;;5075234;28;20272;-71
2022/03/06 04:00:54;;;;;;;0.70;0.60;;;;;;;;;;5075260;28;20672;-71
2022/03/06 04:03:23;;;;;;;0.70;0.60;;;;;;;;;;5059531;28;20216;-71
2022/03/06 04:05:50;;;;;;;0.80;0.80;;;;;;;;;;5055410;28;20214;-71
2022/03/06 04:08:17;;;;;;;0.70;0.60;;;;;;;;;;5066925;28;20185;-71
2022/03/06 04:10:44;;;;;;;0.70;0.60;;;;;;;;;;5073258;28;20211;-70
2022/03/06 04:13:11;;;;;;;1.77;1.67;;;;;;;;;;5075794;28;20287;-71
2022/03/06 04:15:38;;;;;;;0.73;0.70;;;;;;;;;;5057218;28;20181;-70
2022/03/06 04:18:04;;;;;;;0.68;0.60;;;;;;;;;;5073977;28;20655;-70
2022/03/06 04:20:33;;;;;;;0.70;0.60;;;;;;;;;;5091055;28;20226;-70
2022/03/06 04:23:00;;;;;;;0.70;0.60;;;;;;;;;;5090683;28;20217;-70
2022/03/06 04:25:28;;;;;;;0.70;0.50;;;;;;;;;;5074426;28;20197;-70
2022/03/06 04:27:54;;;;;;;0.70;0.60;;;;;;;;;;5078708;28;20213;-70
2022/03/06 04:30:21;;;;;;;0.70;0.63;;;;;;;;;;5072806;28;20177;-70
2022/03/06 04:32:47;;;;;;;0.70;0.50;;;;;;;;;;5074655;28;20239;-71
2022/03/06 04:35:14;;;;;;;0.75;0.60;;;;;;;;;;5074550;28;20181;-70
2022/03/06 04:37:43;;;;;;;0.88;0.88;;;;;;;;;;5073049;28;20228;-70
2022/03/06 04:40:10;;;;;;;0.70;0.60;;;;;;;;;;5071179;28;20584;-71
2022/03/06 04:42:37;;;;;;;0.65;0.60;;;;;;;;;;5070108;28;20277;-71
2022/03/06 04:45:04;;;;;;;0.70;0.60;;;;;;;;;;5073327;28;20228;-70
2022/03/06 04:47:31;;;;;;;0.70;0.70;;;;;;;;;;5081086;28;20227;-71
2022/03/06 04:49:58;;;;;;;0.70;0.65;;;;;;;;;;5073131;28;20342;-71
2022/03/06 04:52:25;;;;;;;0.70;0.50;;;;;;;;;;5056384;28;20251;-71
2022/03/06 04:54:53;;;;;;;0.70;0.70;;;;;;;;;;5073281;28;20188;-71
2022/03/06 04:57:19;;;;;;;0.70;0.57;;;;;;;;;;5066685;28;20196;-71
2022/03/06 04:59:46;;;;;;;0.70;0.60;;;;;;;;;;5055886;28;20193;-71
2022/03/06 05:02:13;;;;;;;0.70;0.60;;;;;;;;;;5061986;28;20251;-71
2022/03/06 05:04:39;;;;;;;1.38;1.27;;;;;;;;;;5072796;28;20582;-71
2022/03/06 05:07:07;;;;;;;0.70;0.65;;;;;;;;;;5061928;28;20546;-71
2022/03/06 05:09:34;;;;;;;0.70;0.65;;;;;;;;;;5054436;28;20178;-71
2022/03/06 05:12:03;;;;;;;0.70;0.65;;;;;;;;;;5057820;28;20676;-71
2022/03/06 05:14:33;;;;;;;0.80;0.80;;;;;;;;;;5074585;28;20195;-71
2022/03/06 05:17:00;;;;;;;0.80;0.80;;;;;;;;;;5073664;28;20271;-70
2022/03/06 05:19:27;;;;;;;0.82;0.82;;;;;;;;;;5062307;28;20192;-71
2022/03/06 05:21:55;;;;;;;0.70;0.60;;;;;;;;;;5067232;28;20208;-71
2022/03/06 05:24:21;;;;;;;0.70;0.70;;;;;;;;;;5073101;28;20211;-71
2022/03/06 05:26:48;;;;;;;0.68;0.60;;;;;;;;;;5072163;28;20259;-71
2022/03/06 05:29:17;;;;;;;0.80;0.80;;;;;;;;;;5056291;28;20284;-70
2022/03/06 05:31:44;;;;;;;0.70;0.70;;;;;;;;;;5074065;28;20579;-71
2022/03/06 05:34:10;;;;;;;0.80;0.80;;;;;;;;;;5074101;28;20187;-71
2022/03/06 05:36:37;;;;;;;5.95;1.42;;;;;;;;;;5071339;28;20208;-71
2022/03/06 05:39:04;;;;;;;0.70;0.70;;;;;;;;;;5065887;28;20217;-71
2022/03/06 05:41:31;;;;;;;0.73;0.73;;;;;;;;;;5055320;28;20182;-73
2022/03/06 05:43:57;;;;;;;0.70;0.70;;;;;;;;;;5074001;28;20201;-73
2022/03/06 05:46:26;;;;;;;0.80;0.70;;;;;;;;;;5072894;28;20275;-71
2022/03/06 05:48:53;;;;;;;0.70;0.70;;;;;;;;;;5071882;28;20288;-71
2022/03/06 05:51:21;;;;;;;0.60;0.60;;;;;;;;;;5071931;28;20724;-72
2022/03/06 05:53:48;;;;;;;0.80;0.80;;;;;;;;;;5073042;28;20219;-72
2022/03/06 05:56:15;;;;;;;0.70;0.70;;;;;;;;;;5066562;28;20192;-72
2022/03/06 05:58:42;;;;;;;0.80;0.80;;;;;;;;;;5053133;28;20700;-72
2022/03/06 06:01:09;;;;;;;0.90;0.90;;;;;;;;;;5037808;28;20670;-72
2022/03/06 06:03:38;;;;;;;0.80;0.80;;;;;;;;;;5051742;28;20229;-72
2022/03/06 06:06:05;;;;;;;0.70;0.70;;;;;;;;;;5052663;28;20217;-72
2022/03/06 06:08:31;;;;;;;0.80;0.80;;;;;;;;;;5056775;28;20197;-72
2022/03/06 06:10:58;;;;;;;0.70;0.60;;;;;;;;;;5068798;28;20318;-72
2022/03/06 06:13:25;;;;;;;0.70;0.70;;;;;;;;;;5063827;28;20189;-73
2022/03/06 06:15:52;;;;;;;0.70;0.70;;;;;;;;;;5068910;28;20188;-72
2022/03/06 06:18:19;;;;;;;0.70;0.63;;;;;;;;;;5069373;28;20201;-72
2022/03/06 06:20:47;;;;;;;0.88;0.88;;;;;;;;;;5053435;28;20178;-72
2022/03/06 06:23:16;;;;;;;0.70;0.70;;;;;;;;;;5069953;28;20205;-72
2022/03/06 06:25:43;;;;;;;0.70;0.70;;;;;;;;;;5072478;28;20704;-72
2022/03/06 06:28:10;;;;;;;2.65;1.90;;;;;;;;;;5072921;28;20208;-73
2022/03/06 06:30:37;;;;;;;0.70;0.60;;;;;;;;;;5071344;28;20204;-72
2022/03/06 06:33:03;;;;;;;0.70;0.60;;;;;;;;;;5072336;28;20188;-72
2022/03/06 06:35:32;;;;;;;0.70;0.63;;;;;;;;;;5071614;28;20661;-73
2022/03/06 06:38:01;;;;;;;2.45;1.25;;;;;;;;;;5072716;28;20211;-72
2022/03/06 06:40:28;;;;;;;0.70;0.70;;;;;;;;;;5069569;28;20196;-71
2022/03/06 06:42:55;;;;;;;0.73;0.73;;;;;;;;;;5043200;28;20244;-72
2022/03/06 06:45:22;;;;;;;0.70;0.60;;;;;;;;;;5060183;28;20593;-73
2022/03/06 06:47:49;;;;;;;0.70;0.60;;;;;;;;;;5062496;28;20208;-72
2022/03/06 06:50:16;;;;;;;0.70;0.60;;;;;;;;;;5065241;28;20193;-72
2022/03/06 06:52:42;;;;;;;0.70;0.65;;;;;;;;;;5063322;28;20217;-72
2022/03/06 06:55:10;;;;;;;0.70;0.65;;;;;;;;;;5061074;28;20181;-71
2022/03/06 06:57:38;;;;;;;0.80;0.70;;;;;;;;;;5064155;28;20201;-72
2022/03/06 07:00:05;;;;;;;0.82;0.82;;;;;;;;;;5067227;28;20572;-72
2022/03/06 07:02:32;;;;;;;0.70;0.70;;;;;;;;;;5053894;28;20177;-71
2022/03/06 07:05:02;;;;;;;0.70;0.60;;;;;;;;;;5075040;28;20177;-71
2022/03/06 07:07:29;;;;;;;0.70;0.70;;;;;;;;;;5077518;28;20271;-71
2022/03/06 07:09:56;;;;;;;0.70;0.60;;;;;;;;;;5064135;28;20220;-71
2022/03/06 07:12:24;;;;;;;0.90;0.90;;;;;;;;;;5066606;28;20185;-71
2022/03/06 07:14:50;;;;;;;0.70;0.60;;;;;;;;;;5075377;28;20208;-71
2022/03/06 07:17:17;;;;;;;0.70;0.70;;;;;;;;;;5042731;28;20297;-71
2022/03/06 07:19:44;;;;;;;0.80;0.80;;;;;;;;;;5042959;28;20534;-71
2022/03/06 07:22:11;;;;;;;0.70;0.70;;;;;;;;;;5064732;28;20216;-72
2022/03/06 07:24:39;;;;;;;0.75;0.75;;;;;;;;;;5058062;28;20610;-71
2022/03/06 07:27:09;;;;;;;0.77;0.75;;;;;;;;;;5074563;28;20283;-71
2022/03/06 07:29:37;;;;;;;0.80;0.80;;;;;;;;;;5074889;28;20181;-71
2022/03/06 07:32:04;;;;;;;0.80;0.80;;;;;;;;;;5077457;28;20197;-71
2022/03/06 07:34:34;;;;;;;0.70;0.70;;;;;;;;;;5077936;28;20660;-72
2022/03/06 07:37:01;;;;;;;0.90;0.90;;;;;;;;;;5059067;28;20316;-72
2022/03/06 07:39:28;;;;;;;0.80;0.80;;;;;;;;;;5075461;28;20208;-72
2022/03/06 07:41:55;;;;;;;0.80;0.80;;;;;;;;;;5066741;28;20672;-73
2022/03/06 07:44:22;;;;;;;0.80;0.70;;;;;;;;;;5056283;28;20549;-72
2022/03/06 07:46:50;;;;;;;0.80;0.80;;;;;;;;;;5056280;28;20658;-71
2022/03/06 07:49:17;;;;;;;0.90;0.90;;;;;;;;;;5056144;28;20232;-72
2022/03/06 07:51:44;;;;;;;0.77;0.77;;;;;;;;;;5055454;28;20212;-72
2022/03/06 07:54:14;;;;;;;0.73;0.73;;;;;;;;;;5058904;28;20209;-72
2022/03/06 07:56:41;;;;;;;0.70;0.70;;;;;;;;;;5058666;28;20174;-72
2022/03/06 07:59:09;;;;;;;1.83;1.73;;;;;;;;;;5071989;28;20193;-71
2022/03/06 08:01:35;;;;;;;1.38;1.27;;;;;;;;;;5068600;28;20543;-72
2022/03/06 08:04:04;;;;;;;1.55;1.45;;;;;;;;;;5067044;28;20212;-72
2022/03/06 08:06:31;;;;;;;0.70;0.70;;;;;;;;;;5075278;28;20677;-72
2022/03/06 08:08:58;;;;;;;0.70;0.63;;;;;;;;;;5066110;28;20178;-72
2022/03/06 08:11:24;;;;;;;0.80;0.80;;;;;;;;;;5057233;28;20251;-72
2022/03/06 08:13:51;;;;;;;0.80;0.80;;;;;;;;;;5074662;28;20208;-72
2022/03/06 08:16:18;;;;;;;1.00;0.90;;;;;;;;;;5058135;28;20231;-72
2022/03/06 08:18:45;;;;;;;1.40;1.30;;;;;;;;;;5055991;28;20186;-72
2022/03/06 08:21:13;;;;;;;0.80;0.80;;;;;;;;;;5055278;28;20216;-73
2022/03/06 08:23:41;;;;;;;0.70;0.70;;;;;;;;;;5055500;28;20216;-73
2022/03/06 08:26:08;;;;;;;0.70;0.70;;;;;;;;;;5054693;28;20296;-73
2022/03/06 08:28:36;;;;;;;0.80;0.80;;;;;;;;;;5057105;28;20190;-74
2022/03/06 08:31:02;;;;;;;5.50;2.45;;;;;;;;;;5071852;28;20599;-74
2022/03/06 08:33:29;;;;;;;0.85;0.82;;;;;;;;;;5074697;28;20213;-73
2022/03/06 08:35:57;;;;;;;0.70;0.60;;;;;;;;;;5056860;28;20232;-73
2022/03/06 08:38:26;;;;;;;0.70;0.70;;;;;;;;;;5072913;28;20615;-73
2022/03/06 08:40:52;;;;;;;0.70;0.70;;;;;;;;;;5069740;28;20217;-74
2022/03/06 08:43:19;;;;;;;0.90;0.90;;;;;;;;;;5069613;28;20641;-71
2022/03/06 08:45:46;;;;;;;0.70;0.60;;;;;;;;;;5072649;28;20551;-73
2022/03/06 08:48:13;;;;;;;0.70;0.70;;;;;;;;;;5061645;28;20197;-72
2022/03/06 08:50:40;;;;;;;0.95;0.93;;;;;;;;;;5074085;28;20174;-71
2022/03/06 08:53:07;;;;;;;0.80;0.70;;;;;;;;;;5073791;28;20181;-72
2022/03/06 08:55:35;;;;;;;0.80;0.70;;;;;;;;;;5072736;28;20550;-72
2022/03/06 08:58:01;;;;;;;0.70;0.70;;;;;;;;;;5072389;28;20189;-72
2022/03/06 09:00:28;;;;;;;0.80;0.70;;;;;;;;;;5053947;28;20519;-73
2022/03/06 09:02:56;;;;;;;0.75;0.70;;;;;;;;;;5055381;28;20683;-72
2022/03/06 09:05:23;;;;;;;0.70;0.60;;;;;;;;;;5054292;28;20212;-72
2022/03/06 09:07:50;;;;;;;0.70;0.70;;;;;;;;;;5054181;28;20216;-72
2022/03/06 09:10:17;;;;;;;0.70;0.70;;;;;;;;;;5072148;28;20229;-73
2022/03/06 09:12:47;;;;;;;0.70;0.70;;;;;;;;;;5055930;28;20807;-73
2022/03/06 09:15:14;;;;;;;1.33;1.23;;;;;;;;;;5069980;28;20546;-72
2022/03/06 09:17:41;;;;;;;1.27;1.17;;;;;;;;;;5052392;28;20444;-72
2022/03/06 09:20:08;;;;;;;0.70;0.60;;;;;;;;;;5053784;28;20803;-72
2022/03/06 09:22:35;;;;;;;1.00;0.90;;;;;;;;;;5054473;28;20467;-72
2022/03/06 09:25:02;;;;;;;0.70;0.60;;;;;;;;;;5052453;28;20428;-72
2022/03/06 09:27:29;;;;;;;0.70;0.60;;;;;;;;;;5058842;28;20961;-72
2022/03/06 09:30:00;;;;;;;0.70;0.50;;;;;;;;;;5071898;28;20903;-72
2022/03/06 09:32:27;;;;;;;0.70;0.60;;;;;;;;;;5072041;28;20525;-73
2022/03/06 09:34:53;;;;;;;0.80;0.70;;;;;;;;;;5067079;28;20522;-72
2022/03/06 09:37:20;;;;;;;0.70;0.63;;;;;;;;;;5066620;28;20469;-72
2022/03/06 09:39:47;;;;;;;2.60;2.40;;;;;;;;;;5072002;28;20449;-72
2022/03/06 09:42:16;;;;;;;2.30;1.10;;;;;;;;;;5062077;28;20516;-72
2022/03/06 09:44:44;;;;;;;0.70;0.60;;;;;;;;;;5051812;28;20497;-72
2022/03/06 09:47:13;;;;;;;1.00;0.90;;;;;;;;;;5065224;28;20471;-72
2022/03/06 09:49:43;;;;;;;0.70;0.67;;;;;;;;;;5052934;28;20461;-72
2022/03/06 09:52:10;;;;;;;2.60;1.73;;;;;;;;;;5037819;28;20833;-72
2022/03/06 09:54:42;;;;;;;0.70;0.60;;;;;;;;;;5053162;28;20429;-72
2022/03/06 09:57:08;;;;;;;0.80;0.70;;;;;;;;;;5055636;28;20505;-72
2022/03/06 09:59:35;;;;;;;0.70;0.50;;;;;;;;;;5063333;28;20529;-72
2022/03/06 10:02:03;;;;;;;0.80;0.77;;;;;;;;;;5054763;28;20486;-73
2022/03/06 10:04:32;;;;;;;0.80;0.73;;;;;;;;;;5055512;28;20433;-73
2022/03/06 10:07:00;;;;;;;0.70;0.60;;;;;;;;;;5051703;28;20975;-73
2022/03/06 10:09:28;;;;;;;0.70;0.60;;;;;;;;;;5069935;28;20447;-73
2022/03/06 10:11:55;;;;;;;0.70;0.70;;;;;;;;;;5064845;28;20466;-73
2022/03/06 10:14:35;;;;;;;0.70;0.60;;;;;;;;;;5066192;28;20439;-74
2022/03/06 10:17:09;;;;;;;1.10;1.00;;;;;;;;;;5058888;28;20522;-75
2022/03/06 10:19:49;;;;;;;1.13;1.03;;;;;;;;;;5072309;28;20407;-74
2022/03/06 10:22:16;;;;;;;0.70;0.50;;;;;;;;;;5066910;28;20466;-74
2022/03/06 10:24:46;;;;;;;0.70;0.60;;;;;;;;;;5073037;28;20465;-75
2022/03/06 10:27:13;;;;;;;1.17;1.07;;;;;;;;;;5068027;28;20509;-74
2022/03/06 10:29:40;;;;;;;0.70;0.60;;;;;;;;;;5071716;28;20508;-75
2022/03/06 10:32:07;;;;;;;0.70;0.60;;;;;;;;;;5071819;28;20451;-73
2022/03/06 10:34:36;;;;;;;0.70;0.60;;;;;;;;;;5070934;28;20449;-73
2022/03/06 10:37:05;;;;;;;0.70;0.70;;;;;;;;;;5071514;28;20458;-74
2022/03/06 10:39:42;;;;;;;1.10;1.00;;;;;;;;;;5054681;28;20466;-73
2022/03/06 10:42:09;;;;;;;4.10;1.33;;;;;;;;;;5056188;28;20442;-73
2022/03/06 10:44:42;;;;;;;0.83;0.80;;;;;;;;;;5067627;28;20431;-74
2022/03/06 10:47:11;;;;;;;0.70;0.60;;;;;;;;;;5074910;28;20458;-74
2022/03/06 10:49:39;;;;;;;0.70;0.60;;;;;;;;;;5076605;28;20432;-74
2022/03/06 10:52:14;;;;;;;5.23;1.57;;;;;;;;;;5058244;28;21014;-73
2022/03/06 10:54:52;;;;;;;2.17;1.33;;;;;;;;;;5076446;28;20423;-74
2022/03/06 10:57:19;;;;;;;0.70;0.60;;;;;;;;;;5076181;28;20432;-74
2022/03/06 10:59:47;;;;;;;0.80;0.60;;;;;;;;;;5076563;28;20509;-74
2022/03/06 11:02:15;;;;;;;0.70;0.60;;;;;;;;;;5076100;28;20495;-75
2022/03/06 11:04:53;;;;;;;0.70;0.60;;;;;;;;;;5059140;28;20972;-74
2022/03/06 11:07:22;;;;;;;0.70;0.60;;;;;;;;;;5058958;28;20490;-73
2022/03/06 11:09:50;;;;;;;0.77;0.63;;;;;;;;;;5057303;28;20423;-74
2022/03/06 11:12:17;;;;;;;0.70;0.60;;;;;;;;;;5073297;28;20473;-74
2022/03/06 11:14:45;;;;;;;0.80;0.70;;;;;;;;;;5060372;28;20447;-75
2022/03/06 11:17:13;;;;;;;1.20;0.90;;;;;;;;;;5077323;28;20455;-74
2022/03/06 11:19:43;;;;;;;0.70;0.53;;;;;;;;;;5087745;28;21000;-74
2022/03/06 11:22:13;;;;;;;0.70;0.60;;;;;;;;;;5075539;28;20472;-74
2022/03/06 11:24:45;;;;;;;0.90;0.90;;;;;;;;;;5075596;28;20462;-75
2022/03/06 11:27:20;;;;;;;0.70;0.60;;;;;;;;;;5062874;28;20469;-74
2022/03/06 11:29:54;;;;;;;0.70;0.60;;;;;;;;;;5054584;28;20988;-74
2022/03/06 11:32:25;;;;;;;0.83;0.83;;;;;;;;;;5054929;28;20450;-71
2022/03/06 11:34:59;;;;;;;0.80;0.70;;;;;;;;;;5054923;28;21024;-74
2022/03/06 11:37:28;;;;;;;0.70;0.60;;;;;;;;;;5053333;28;20551;-74
2022/03/06 11:39:56;;;;;;;1.43;1.33;;;;;;;;;;5074885;28;20443;-73
2022/03/06 11:42:23;;;;;;;;;;;;;;;;;;5070324;28;20287;-74
2022/03/06 11:44:49;;;;;;;;;;;;;;;;;;5061278;28;19974;-73
2022/03/06 11:47:16;;;;;;;;;;;;;;;;;;5088321;28;20057;-72
2022/03/06 11:50:08;;;;;;;;;;;;;;;;;;5080358;28;19928;-72
2022/03/06 11:52:34;;;;;;;;;;;;;;;;;;5055419;28;19921;-75
2022/03/06 11:55:02;;;;;;;;;;;;;;;;;;5073506;28;19925;-77
2022/03/06 11:57:28;;;;;;;;;;;;;;;;;;5051835;28;19963;-75
2022/03/06 11:59:56;;;;;;;;;;;;;;;;;;5055321;28;19927;-74
2022/03/06 12:02:23;;;;;;;;;;;;;;;;;;5055928;28;20431;-74
2022/03/06 12:04:50;;;;;;;;;;;;;;;;;;5055863;28;19928;-75
2022/03/06 12:07:16;;;;;;;;;;;;;;;;;;5054656;28;19924;-75
2022/03/06 12:09:53;;;;;;;;;;;;;;;;;;5087488;28;19921;-74
2022/03/06 12:12:21;;;;;;;;;;;;;;;;;;5073739;28;19974;-73
2022/03/06 12:14:51;;;;;;;;;;;;;;;;;;5047524;28;20385;-74
2022/03/06 12:17:18;;;;;;;;;;;;;;;;;;5073820;28;19920;-75
2022/03/06 12:19:48;;;;;;;;;;;;;;;;;;5074118;28;20328;-74
2022/03/06 12:22:15;;;;;;;;;;;;;;;;;;5074659;28;19966;-74
2022/03/06 12:24:45;;;;;;;;;;;;;;;;;;5074416;28;19926;-74
2022/03/06 12:27:11;;;;;;;;;;;;;;;;;;5072070;28;19982;-74
2022/03/06 12:29:38;;;;;;;;;;;;;;;;;;5073647;28;19920;-73
2022/03/06 12:32:05;;;;;;;;;;;;;;;;;;5074038;28;19921;-73
2022/03/06 12:34:31;;;;;;;;;;;;;;;;;;5075462;28;19928;-73
2022/03/06 12:36:59;;;;;;;;;;;;;;;;;;5070295;28;19944;-73
2022/03/06 12:39:25;;;;;;;;;;;;;;;;;;5065320;28;19929;-74
2022/03/06 12:42:18;;;;;;;;;;;;;;;;;;5069929;28;19928;-73
2022/03/06 12:44:45;;;;;;;;;;;;;;;;;;5070342;28;19928;-74
2022/03/06 12:47:12;;;;;;;;;;;;;;;;;;5073017;28;20007;-73
2022/03/06 12:49:39;;;;;;;;;;;;;;;;;;5056959;28;19953;-73
2022/03/06 12:52:05;;;;;;;;;;;;;;;;;;5069585;28;19989;-73
2022/03/06 12:54:33;;;;;;;;;;;;;;;;;;5069996;28;19928;-73
2022/03/06 12:57:01;;;;;;;;;;;;;;;;;;5073140;28;20331;-72
2022/03/06 12:59:27;;;;;;;;;;;;;;;;;;5074434;28;19920;-73
2022/03/06 13:01:54;;;;;;;;;;;;;;;;;;5056836;28;19921;-73
2022/03/06 13:04:25;;;;;;;0.80;0.80;;;;;;;;;;5068024;28;20732;-75
2022/03/06 13:06:53;;;;;;;2.70;1.10;;;;;;;;;;5052149;28;20447;-74
2022/03/06 13:09:21;;;;;;;0.80;0.70;;;;;;;;;;5054904;28;20409;-75
2022/03/06 13:11:50;;;;;;;0.70;0.60;;;;;;;;;;5060946;28;20244;-75
2022/03/06 13:14:24;;;;;;;0.70;0.60;;;;;;;;;;5053045;28;20417;-74
2022/03/06 13:16:53;;;;;;;;;;;;;;;;;;5067527;28;20299;-75
2022/03/06 13:19:19;;;;;;;;;;;;;;;;;;5061940;28;19921;-73
2022/03/06 13:21:48;;;;;;;;;;;;;;;;;;5067830;28;19920;-73
2022/03/06 13:24:17;;;;;;;;;;;;;;;;;;5073124;28;20234;-73
2022/03/06 13:26:46;;;;;;;;;;;;;;;;;;5052935;28;19921;-73
2022/03/06 13:29:14;;;;;;;;;;;;;;;;;;5056520;28;20036;-73
2022/03/06 13:31:41;;;;;;;;;;;;;;;;;;5073126;28;19921;-72
2022/03/06 13:34:07;;;;;;;;;;;;;;;;;;5073501;28;20015;-72
2022/03/06 13:36:33;;;;;;;;;;;;;;;;;;5073193;28;19924;-73
2022/03/06 13:39:01;;;;;;;;;;;;;;;;;;5059416;28;19946;-73
2022/03/06 13:41:27;;;;;;;;;;;;;;;;;;5044866;28;19920;-74
2022/03/06 13:43:55;;;;;;;;;;;;;;;;;;5052780;28;19928;-72
2022/03/06 13:46:23;;;;;;;;;;;;;;;;;;5052753;28;20344;-75
2022/03/06 13:48:50;;;;;;;;;;;;;;;;;;5052822;28;19978;-74
2022/03/06 13:51:17;;;;;;;;;;;;;;;;;;5069088;28;19924;-73
2022/03/06 13:53:44;;;;;;;;;;;;;;;;;;5054453;28;20022;-73
2022/03/06 13:56:12;;;;;;;0.70;0.60;;;;;;;;;;5057356;28;20249;-73
2022/03/06 13:58:39;;;;;;;0.70;0.60;;;;;;;;;;5051873;28;20840;-74
2022/03/06 14:01:06;;;;;;;0.70;0.50;;;;;;;;;;5067534;28;20469;-73
2022/03/06 14:03:34;;;;;;;4.32;1.20;;;;;;;;;;5071109;28;20404;-74
2022/03/06 14:06:02;;;;;;;1.70;0.70;;;;;;;;;;5073087;28;20407;-74
2022/03/06 14:08:38;;;;;;;1.40;1.30;;;;;;;;;;5070670;28;20411;-74
2022/03/06 14:11:06;;;;;;;0.90;0.70;;;;;;;;;;5065073;28;20921;-75
2022/03/06 14:13:37;;;;;;;2.93;0.90;;;;;;;;;;5054551;28;20433;-75
2022/03/06 14:16:05;;;;;;;1.10;1.00;;;;;;;;;;5053839;28;20818;-75
2022/03/06 14:18:32;;;;;;;1.20;0.90;;;;;;;;;;5056885;28;20409;-75
2022/03/06 14:20:59;;;;;;;0.93;0.73;;;;;;;;;;5075392;28;20403;-75
2022/03/06 14:23:26;;;;;;;0.80;0.70;;;;;;;;;;5069420;28;20508;-75
2022/03/06 14:25:53;;;;;;;1.20;0.70;;;;;;;;;;5063832;28;21392;-75
2022/03/06 14:28:20;;;;;;;1.20;0.80;;;;;;;;;;5054746;28;20506;-75
2022/03/06 14:30:51;;;;;;;1.10;0.90;;;;;;;;;;5065802;28;20419;-75
2022/03/06 14:33:18;;;;;;;0.80;0.60;;;;;;;;;;5064600;28;20480;-75
2022/03/06 14:35:45;;;;;;;1.20;0.90;;;;;;;;;;5065360;28;20926;-74
2022/03/06 14:38:11;;;;;;;2.00;0.70;;;;;;;;;;5065246;28;20405;-75
2022/03/06 14:40:38;;;;;;;0.70;0.50;;;;;;;;;;5063157;28;20415;-76
2022/03/06 14:43:05;;;;;;;0.70;0.50;;;;;;;;;;5065307;28;20419;-75
2022/03/06 14:45:34;;;;;;;1.73;1.15;;;;;;;;;;5065664;28;20411;-76
2022/03/06 14:48:03;;;;;;;0.70;0.70;;;;;;;;;;5078384;28;20585;-76
2022/03/06 14:50:30;;;;;;;1.10;0.80;;;;;;;;;;5074837;28;20985;-77
2022/03/06 14:52:57;;;;;;;1.60;0.93;;;;;;;;;;5075483;28;20423;-74
2022/03/06 14:55:24;;;;;;;0.75;0.57;;;;;;;;;;5070859;28;20417;-74
2022/03/06 14:57:52;;;;;;;0.80;0.80;;;;;;;;;;5062353;28;20953;-74
2022/03/06 15:00:19;;;;;;;1.98;1.10;;;;;;;;;;5075732;28;20399;-73
2022/03/06 15:02:47;;;;;;;1.10;1.00;;;;;;;;;;5060896;28;20409;-75
2022/03/06 15:05:13;;;;;;;;;;;;;;;;;;5056013;28;20056;-73
2022/03/06 15:07:44;;;;;;;;;;;;;;;;;;5075680;28;19927;-76